createdAt,value
2019-03-17T00:00:08.555Z,5.80
2019-03-17T00:02:37.009Z,5.80
2019-03-17T00:05:06.507Z,5.90
2019-03-17T00:07:34.969Z,5.80
2019-03-17T00:10:03.583Z,5.80
2019-03-17T00:12:32.119Z,5.80
2019-03-17T00:15:05.478Z,5.70
2019-03-17T00:17:30.814Z,5.70
2019-03-17T00:19:59.287Z,5.70
2019-03-17T00:22:27.725Z,5.70
2019-03-17T00:25:08.184Z,5.70
2019-03-17T00:27:26.386Z,5.70
2019-03-17T00:29:54.835Z,5.70
2019-03-17T00:32:23.374Z,5.60
2019-03-17T00:34:51.855Z,5.60
2019-03-17T00:37:20.683Z,5.60
2019-03-17T00:39:49.136Z,5.60
2019-03-17T00:42:17.611Z,5.50
2019-03-17T00:44:46.072Z,5.50
2019-03-17T00:47:14.519Z,5.50
2019-03-17T00:49:42.994Z,5.50
2019-03-17T00:52:11.436Z,5.60
2019-03-17T00:54:39.890Z,5.60
2019-03-17T00:57:08.450Z,5.60
2019-03-17T00:59:36.922Z,5.50
2019-03-17T01:02:05.406Z,5.50
2019-03-17T01:04:33.869Z,5.50
2019-03-17T01:07:02.359Z,5.50
2019-03-17T01:09:30.814Z,5.50
2019-03-17T01:11:59.979Z,5.50
2019-03-17T01:14:28.484Z,5.50
2019-03-17T01:16:56.938Z,5.50
2019-03-17T01:19:25.409Z,5.50
2019-03-17T01:21:54.165Z,5.50
2019-03-17T01:24:22.711Z,5.50
2019-03-17T01:26:51.238Z,5.50
2019-03-17T01:29:19.941Z,5.50
2019-03-17T01:31:48.394Z,5.50
2019-03-17T01:34:16.850Z,5.50
2019-03-17T01:36:45.322Z,5.60
2019-03-17T01:39:13.851Z,5.60
2019-03-17T01:41:42.329Z,5.60
2019-03-17T01:44:10.793Z,5.60
2019-03-17T01:46:39.269Z,5.60
2019-03-17T01:49:07.728Z,5.70
2019-03-17T01:51:36.170Z,5.70
2019-03-17T01:54:04.727Z,5.60
2019-03-17T01:56:33.186Z,5.70
2019-03-17T01:59:01.752Z,5.70
2019-03-17T02:01:30.199Z,5.70
2019-03-17T02:04:17.994Z,5.80
2019-03-17T02:06:46.455Z,5.70
2019-03-17T02:09:15.126Z,5.80
2019-03-17T02:11:43.581Z,5.80
2019-03-17T02:14:12.049Z,5.80
2019-03-17T02:16:40.595Z,5.80
2019-03-17T02:19:09.060Z,5.80
2019-03-17T02:21:37.514Z,5.80
2019-03-17T02:24:06.047Z,5.90
2019-03-17T02:26:34.496Z,5.90
2019-03-17T02:29:02.950Z,6.00
2019-03-17T02:31:31.500Z,6.00
2019-03-17T02:34:00.156Z,6.00
2019-03-17T02:36:28.679Z,6.00
2019-03-17T02:38:57.336Z,6.10
2019-03-17T02:41:25.854Z,6.10
2019-03-17T02:43:54.305Z,6.10
2019-03-17T02:46:22.776Z,6.10
2019-03-17T02:48:51.265Z,6.10
2019-03-17T02:51:19.718Z,6.20
2019-03-17T02:53:48.192Z,6.20
2019-03-17T02:56:16.741Z,6.30
2019-03-17T02:58:45.291Z,6.30
2019-03-17T03:01:13.819Z,6.30
2019-03-17T03:03:42.341Z,6.40
2019-03-17T03:06:10.812Z,6.40
2019-03-17T03:08:39.348Z,6.50
2019-03-17T03:11:07.811Z,6.50
2019-03-17T03:13:36.342Z,6.50
2019-03-17T03:16:05.885Z,6.60
2019-03-17T03:18:34.999Z,6.60
2019-03-17T03:21:03.469Z,6.70
2019-03-17T03:23:32.054Z,6.70
2019-03-17T03:26:00.590Z,6.70
2019-03-17T03:28:29.044Z,6.80
2019-03-17T03:30:57.545Z,6.80
2019-03-17T03:33:26.002Z,6.80
2019-03-17T03:36:09.365Z,6.80
2019-03-17T03:38:24.639Z,6.90
2019-03-17T03:40:53.103Z,6.80
2019-03-17T03:43:21.651Z,6.80
2019-03-17T03:45:50.185Z,6.80
2019-03-17T03:48:18.986Z,6.80
2019-03-17T03:50:47.486Z,6.80
2019-03-17T03:53:16.050Z,6.80
2019-03-17T03:55:44.503Z,6.80
2019-03-17T03:58:13.051Z,6.80
2019-03-17T04:00:41.519Z,6.80
2019-03-17T04:03:10.061Z,6.80
2019-03-17T04:05:38.528Z,6.80
2019-03-17T04:08:07.207Z,6.80
2019-03-17T04:10:35.706Z,6.80
2019-03-17T04:13:04.156Z,6.90
2019-03-17T04:15:32.602Z,6.90
2019-03-17T04:18:01.265Z,6.90
2019-03-17T04:20:29.773Z,6.90
2019-03-17T04:22:58.213Z,6.90
2019-03-17T04:25:26.696Z,7.00
2019-03-17T04:27:55.154Z,7.00
2019-03-17T04:30:23.614Z,7.00
2019-03-17T04:32:52.179Z,7.00
2019-03-17T04:35:20.707Z,7.00
2019-03-17T04:37:49.265Z,7.00
2019-03-17T04:40:17.735Z,7.00
2019-03-17T04:42:46.236Z,7.10
2019-03-17T04:45:14.725Z,7.10
2019-03-17T04:47:43.170Z,7.10
2019-03-17T04:50:11.803Z,7.10
2019-03-17T04:52:40.277Z,7.10
2019-03-17T04:55:09.189Z,7.10
2019-03-17T04:57:37.717Z,7.20
2019-03-17T05:00:13.367Z,7.20
2019-03-17T05:02:41.821Z,7.20
2019-03-17T05:05:10.274Z,7.20
2019-03-17T05:07:38.759Z,7.30
2019-03-17T05:10:11.109Z,7.30
2019-03-17T05:12:39.557Z,7.30
2019-03-17T05:15:10.062Z,7.30
2019-03-17T05:17:38.731Z,7.30
2019-03-17T05:20:09.517Z,7.30
2019-03-17T05:22:37.983Z,7.30
2019-03-17T05:25:07.969Z,7.40
2019-03-17T05:27:36.431Z,7.40
2019-03-17T05:30:07.802Z,7.40
2019-03-17T05:32:36.263Z,7.40
2019-03-17T05:35:06.560Z,7.40
2019-03-17T05:37:35.015Z,7.40
2019-03-17T05:40:05.501Z,7.40
2019-03-17T05:42:34.036Z,7.40
2019-03-17T05:45:02.566Z,7.40
2019-03-17T05:47:31.027Z,7.50
2019-03-17T05:49:59.493Z,7.50
2019-03-17T05:52:28.053Z,7.50
2019-03-17T05:54:56.515Z,7.50
2019-03-17T05:57:24.957Z,7.50
2019-03-17T05:59:53.426Z,7.50
2019-03-17T06:02:21.886Z,7.50
2019-03-17T06:04:50.370Z,7.60
2019-03-17T06:07:19.225Z,7.60
2019-03-17T06:09:48.003Z,7.60
2019-03-17T06:12:16.472Z,7.60
2019-03-17T06:14:44.939Z,7.60
2019-03-17T06:17:13.402Z,7.60
2019-03-17T06:19:42.154Z,7.60
2019-03-17T06:22:10.697Z,7.70
2019-03-17T06:24:39.225Z,7.80
2019-03-17T06:27:07.681Z,7.80
2019-03-17T06:29:36.285Z,7.90
2019-03-17T06:32:04.801Z,7.90
2019-03-17T06:34:33.248Z,7.90
2019-03-17T06:37:01.723Z,8.00
2019-03-17T06:39:30.251Z,8.10
2019-03-17T06:41:58.693Z,8.10
2019-03-17T06:44:27.233Z,8.20
2019-03-17T06:46:56.079Z,8.20
2019-03-17T06:49:24.533Z,8.30
2019-03-17T06:51:53.065Z,8.30
2019-03-17T06:54:21.537Z,8.50
2019-03-17T06:56:50.105Z,8.50
2019-03-17T06:59:18.618Z,8.60
2019-03-17T07:01:47.151Z,8.70
2019-03-17T07:04:15.686Z,8.70
2019-03-17T07:06:44.256Z,8.80
2019-03-17T07:09:13.044Z,8.90
2019-03-17T07:11:41.569Z,9.00
2019-03-17T07:14:10.032Z,9.00
2019-03-17T07:16:38.482Z,9.00
2019-03-17T07:19:06.957Z,9.10
2019-03-17T07:21:35.404Z,9.20
2019-03-17T07:24:03.863Z,9.30
2019-03-17T07:26:32.322Z,9.30
2019-03-17T07:29:00.783Z,9.40
2019-03-17T07:31:29.652Z,9.50
2019-03-17T07:33:58.114Z,9.60
2019-03-17T07:36:26.580Z,9.60
2019-03-17T07:38:55.120Z,9.60
2019-03-17T07:41:23.641Z,9.60
2019-03-17T07:43:52.126Z,9.70
2019-03-17T07:46:20.794Z,9.70
2019-03-17T07:48:49.307Z,9.70
2019-03-17T07:51:17.796Z,9.70
2019-03-17T07:53:46.242Z,9.80
2019-03-17T07:56:14.695Z,9.90
2019-03-17T07:59:02.543Z,10.00
2019-03-17T08:01:31.013Z,10.10
2019-03-17T08:03:59.587Z,10.20
2019-03-17T08:06:28.132Z,10.40
2019-03-17T08:08:56.580Z,10.40
2019-03-17T08:11:25.044Z,10.50
2019-03-17T08:13:53.539Z,10.50
2019-03-17T08:16:22.005Z,10.60
2019-03-17T08:18:50.542Z,10.60
2019-03-17T08:21:19.069Z,10.70
2019-03-17T08:23:47.603Z,10.80
2019-03-17T08:26:16.266Z,10.90
2019-03-17T08:28:44.729Z,11.00
2019-03-17T08:31:13.188Z,11.00
2019-03-17T08:33:41.643Z,11.10
2019-03-17T08:36:10.114Z,11.20
2019-03-17T08:38:38.775Z,11.30
2019-03-17T08:41:07.290Z,11.30
2019-03-17T08:43:35.756Z,11.30
2019-03-17T08:46:04.544Z,11.40
2019-03-17T08:48:33.011Z,11.50
2019-03-17T08:51:01.478Z,11.50
2019-03-17T08:53:30.012Z,11.50
2019-03-17T08:55:58.494Z,11.50
2019-03-17T08:58:26.933Z,11.60
2019-03-17T09:00:55.405Z,11.80
2019-03-17T09:03:24.085Z,11.90
2019-03-17T09:05:54.328Z,12.00
2019-03-17T09:08:34.343Z,12.10
2019-03-17T09:10:52.966Z,12.10
2019-03-17T09:13:21.592Z,12.20
2019-03-17T09:15:50.131Z,12.40
2019-03-17T09:18:18.650Z,12.40
2019-03-17T09:20:47.343Z,12.50
2019-03-17T09:23:15.934Z,12.50
2019-03-17T09:25:44.399Z,12.50
2019-03-17T09:28:12.852Z,12.60
2019-03-17T09:30:41.352Z,12.60
2019-03-17T09:33:09.804Z,12.60
2019-03-17T09:35:38.333Z,12.70
2019-03-17T09:38:06.786Z,12.80
2019-03-17T09:40:35.242Z,12.90
2019-03-17T09:43:03.697Z,13.00
2019-03-17T09:45:33.263Z,13.00
2019-03-17T09:48:02.136Z,13.10
2019-03-17T09:50:30.603Z,13.00
2019-03-17T09:52:59.127Z,13.00
2019-03-17T09:55:27.724Z,13.00
2019-03-17T09:57:56.186Z,12.90
2019-03-17T10:00:24.727Z,13.00
2019-03-17T10:02:53.251Z,13.10
2019-03-17T10:05:21.792Z,13.20
2019-03-17T10:07:50.237Z,13.20
2019-03-17T10:10:20.897Z,13.40
2019-03-17T10:12:49.357Z,13.50
2019-03-17T10:15:19.561Z,13.60
2019-03-17T10:17:48.122Z,13.60
2019-03-17T10:20:17.814Z,13.70
2019-03-17T10:22:46.263Z,13.70
2019-03-17T10:25:14.754Z,13.80
2019-03-17T10:27:43.578Z,13.80
2019-03-17T10:30:19.323Z,13.80
2019-03-17T10:32:47.787Z,13.80
2019-03-17T10:35:16.322Z,13.80
2019-03-17T10:37:44.856Z,13.80
2019-03-17T10:40:21.454Z,13.80
2019-03-17T10:42:50.361Z,13.80
2019-03-17T10:45:18.815Z,13.70
2019-03-17T10:47:47.262Z,13.70
2019-03-17T10:50:19.869Z,13.70
2019-03-17T10:52:48.627Z,13.80
2019-03-17T10:55:17.511Z,13.80
2019-03-17T10:57:46.227Z,13.90
2019-03-17T11:00:16.803Z,13.90
2019-03-17T11:02:45.262Z,13.90
2019-03-17T11:05:13.958Z,13.90
2019-03-17T11:07:42.411Z,14.10
2019-03-17T11:10:12.227Z,14.10
2019-03-17T11:12:40.679Z,14.20
2019-03-17T11:15:22.154Z,14.20
2019-03-17T11:17:50.679Z,14.10
2019-03-17T11:20:19.624Z,14.10
2019-03-17T11:22:48.078Z,14.10
2019-03-17T11:25:20.261Z,14.10
2019-03-17T11:27:48.809Z,14.20
2019-03-17T11:30:21.900Z,14.20
2019-03-17T11:32:50.362Z,14.30
2019-03-17T11:35:18.834Z,14.40
2019-03-17T11:37:47.291Z,14.40
2019-03-17T11:40:19.698Z,14.50
2019-03-17T11:42:50.165Z,14.70
2019-03-17T11:45:19.259Z,14.80
2019-03-17T11:47:47.851Z,14.90
2019-03-17T11:50:17.829Z,15.10
2019-03-17T11:53:05.707Z,15.20
2019-03-17T11:55:34.239Z,15.30
2019-03-17T11:58:02.719Z,15.80
2019-03-17T12:00:31.177Z,16.30
2019-03-17T12:02:59.709Z,16.90
2019-03-17T12:05:28.176Z,17.50
2019-03-17T12:07:56.716Z,17.70
2019-03-17T12:10:25.243Z,18.00
2019-03-17T12:12:53.883Z,18.20
2019-03-17T12:15:25.011Z,18.50
2019-03-17T12:17:53.528Z,18.70
2019-03-17T12:20:22.033Z,19.10
2019-03-17T12:22:50.553Z,19.40
2019-03-17T12:25:19.557Z,19.40
2019-03-17T12:27:48.116Z,19.60
2019-03-17T12:30:23.606Z,19.60
2019-03-17T12:32:53.504Z,19.70
2019-03-17T12:35:22.821Z,19.90
2019-03-17T12:37:52.093Z,20.10
2019-03-17T12:40:20.771Z,20.20
2019-03-17T12:42:49.318Z,20.30
2019-03-17T12:45:17.920Z,20.50
2019-03-17T12:47:46.375Z,20.70
2019-03-17T12:50:19.974Z,20.80
2019-03-17T12:52:48.510Z,20.70
2019-03-17T12:55:16.991Z,20.70
2019-03-17T12:57:46.204Z,20.90
2019-03-17T13:00:16.397Z,21.00
2019-03-17T13:02:44.931Z,21.20
2019-03-17T13:05:33.168Z,21.50
2019-03-17T13:08:01.613Z,21.70
2019-03-17T13:10:30.079Z,21.60
2019-03-17T13:12:58.566Z,21.60
2019-03-17T13:15:27.019Z,21.60
2019-03-17T13:17:55.475Z,21.50
2019-03-17T13:20:24.125Z,21.40
2019-03-17T13:22:53.349Z,21.40
2019-03-17T13:25:21.968Z,21.30
2019-03-17T13:27:50.488Z,21.10
2019-03-17T13:30:19.574Z,21.10
2019-03-17T13:32:48.431Z,21.10
2019-03-17T13:35:16.894Z,21.00
2019-03-17T13:37:45.425Z,20.80
2019-03-17T13:40:27.618Z,20.70
2019-03-17T13:42:45.600Z,20.50
2019-03-17T13:45:14.897Z,20.30
2019-03-17T13:47:43.737Z,20.10
2019-03-17T13:50:21.208Z,19.80
2019-03-17T13:52:49.669Z,19.60
2019-03-17T13:55:18.291Z,19.30
2019-03-17T13:57:55.746Z,19.20
2019-03-17T14:00:24.203Z,19.10
2019-03-17T14:02:52.657Z,19.00
2019-03-17T14:05:21.106Z,19.00
2019-03-17T14:07:49.838Z,19.00
2019-03-17T14:10:19.275Z,19.00
2019-03-17T14:12:47.803Z,19.00
2019-03-17T14:15:16.562Z,19.10
2019-03-17T14:17:45.048Z,19.20
2019-03-17T14:20:21.591Z,19.20
2019-03-17T14:22:50.566Z,19.30
2019-03-17T14:25:31.565Z,19.20
2019-03-17T14:28:00.152Z,19.30
2019-03-17T14:30:28.941Z,19.20
2019-03-17T14:32:57.411Z,19.30
2019-03-17T14:35:25.942Z,19.20
2019-03-17T14:37:54.476Z,19.30
2019-03-17T14:40:23.010Z,19.30
2019-03-17T14:42:51.836Z,19.40
2019-03-17T14:45:20.360Z,19.40
2019-03-17T14:47:54.746Z,19.50
2019-03-17T14:50:24.646Z,19.50
2019-03-17T14:52:53.187Z,19.60
2019-03-17T14:55:21.707Z,19.60
2019-03-17T14:57:50.169Z,19.60
2019-03-17T15:00:25.184Z,19.60
2019-03-17T15:02:53.719Z,19.60
2019-03-17T15:05:25.046Z,19.50
2019-03-17T15:07:52.505Z,19.50
2019-03-17T15:10:25.476Z,19.40
2019-03-17T15:12:54.012Z,19.40
2019-03-17T15:15:23.595Z,19.40
2019-03-17T15:17:52.123Z,19.40
2019-03-17T15:20:25.438Z,19.30
2019-03-17T15:22:54.446Z,19.30
2019-03-17T15:25:22.986Z,19.30
2019-03-17T15:27:51.443Z,19.30
2019-03-17T15:30:27.264Z,19.30
2019-03-17T15:32:55.957Z,19.30
2019-03-17T15:35:24.418Z,19.40
2019-03-17T15:37:52.955Z,19.40
2019-03-17T15:40:22.355Z,19.40
2019-03-17T15:42:50.920Z,19.40
2019-03-17T15:45:26.207Z,19.40
2019-03-17T15:47:54.791Z,19.30
2019-03-17T15:50:25.694Z,19.20
2019-03-17T15:52:54.138Z,19.10
2019-03-17T15:55:22.690Z,19.10
2019-03-17T15:57:51.366Z,19.00
2019-03-17T16:00:27.212Z,18.90
2019-03-17T16:02:55.924Z,18.80
2019-03-17T16:05:24.455Z,18.60
2019-03-17T16:07:52.997Z,18.60
2019-03-17T16:10:27.498Z,18.40
2019-03-17T16:12:56.032Z,18.30
2019-03-17T16:15:25.051Z,18.20
2019-03-17T16:17:54.048Z,18.10
2019-03-17T16:20:26.473Z,17.90
2019-03-17T16:22:55.418Z,17.80
2019-03-17T16:25:28.203Z,17.70
2019-03-17T16:27:56.645Z,17.60
2019-03-17T16:30:27.710Z,17.40
2019-03-17T16:32:56.683Z,17.20
2019-03-17T16:35:25.490Z,17.10
2019-03-17T16:37:54.979Z,17.00
2019-03-17T16:40:29.499Z,16.90
2019-03-17T16:42:58.089Z,16.80
2019-03-17T16:45:26.693Z,16.70
2019-03-17T16:47:55.159Z,16.50
2019-03-17T16:50:24.563Z,16.50
2019-03-17T16:52:53.177Z,16.40
2019-03-17T16:55:21.968Z,16.30
2019-03-17T16:57:50.432Z,16.20
2019-03-17T17:00:23.718Z,16.10
2019-03-17T17:02:52.456Z,16.00
2019-03-17T17:05:21.964Z,16.00
2019-03-17T17:07:50.649Z,15.90
2019-03-17T17:10:24.551Z,15.80
2019-03-17T17:12:53.007Z,15.70
2019-03-17T17:15:26.243Z,15.60
2019-03-17T17:17:54.711Z,15.50
2019-03-17T17:20:39.551Z,15.50
2019-03-17T17:23:08.024Z,15.50
2019-03-17T17:25:36.600Z,15.40
2019-03-17T17:28:05.087Z,15.30
2019-03-17T17:30:33.667Z,15.30
2019-03-17T17:33:02.212Z,15.20
2019-03-17T17:35:30.748Z,15.20
2019-03-17T17:37:59.273Z,15.20
2019-03-17T17:40:28.180Z,15.10
2019-03-17T17:42:56.712Z,15.10
2019-03-17T17:45:28.160Z,15.10
2019-03-17T17:47:56.986Z,15.00
2019-03-17T17:50:27.533Z,14.90
2019-03-17T17:52:56.041Z,14.90
2019-03-17T17:55:24.581Z,14.80
2019-03-17T17:57:53.431Z,14.70
2019-03-17T18:00:35.668Z,14.70
2019-03-17T18:03:04.737Z,14.60
2019-03-17T18:05:33.226Z,14.50
2019-03-17T18:08:01.818Z,14.50
2019-03-17T18:10:30.469Z,14.40
2019-03-17T18:12:59.090Z,14.40
2019-03-17T18:15:30.364Z,14.30
2019-03-17T18:17:59.007Z,14.30
2019-03-17T18:20:47.128Z,14.20
2019-03-17T18:23:18.246Z,14.10
2019-03-17T18:25:45.849Z,14.00
2019-03-17T18:28:21.620Z,14.00
2019-03-17T18:30:50.191Z,13.90
2019-03-17T18:33:18.659Z,13.90
2019-03-17T18:35:47.344Z,13.90
2019-03-17T18:38:15.898Z,13.90
2019-03-17T18:40:44.454Z,13.90
2019-03-17T18:43:12.911Z,14.00
2019-03-17T18:45:42.664Z,14.00
2019-03-17T18:48:11.516Z,14.00
2019-03-17T18:50:40.068Z,14.00
2019-03-17T18:53:08.561Z,14.10
2019-03-17T18:55:37.497Z,14.10
2019-03-17T18:58:06.057Z,14.10
2019-03-17T19:00:34.963Z,14.10
2019-03-17T19:03:03.429Z,14.10
2019-03-17T19:05:31.878Z,14.20
2019-03-17T19:08:00.347Z,14.20
2019-03-17T19:10:30.339Z,14.20
2019-03-17T19:12:58.796Z,14.20
2019-03-17T19:15:27.250Z,14.20
2019-03-17T19:18:01.741Z,14.10
2019-03-17T19:20:30.230Z,14.10
2019-03-17T19:22:58.705Z,14.00
2019-03-17T19:25:27.277Z,14.00
2019-03-17T19:27:55.766Z,13.90
2019-03-17T19:30:24.508Z,13.90
2019-03-17T19:32:53.054Z,13.80
2019-03-17T19:35:21.527Z,13.70
2019-03-17T19:37:50.022Z,13.70
2019-03-17T19:40:20.124Z,13.60
2019-03-17T19:42:57.922Z,13.60
2019-03-17T19:45:19.005Z,13.60
2019-03-17T19:47:47.467Z,13.50
2019-03-17T19:50:21.478Z,13.50
2019-03-17T19:52:50.014Z,13.40
2019-03-17T19:55:18.660Z,13.40
2019-03-17T19:57:47.285Z,13.30
2019-03-17T20:00:17.333Z,13.20
2019-03-17T20:02:47.790Z,13.00
2019-03-17T20:05:16.217Z,12.90
2019-03-17T20:07:44.675Z,12.80
2019-03-17T20:10:22.238Z,12.70
2019-03-17T20:12:50.807Z,12.60
2019-03-17T20:15:19.262Z,12.40
2019-03-17T20:17:47.835Z,12.30
2019-03-17T20:20:16.328Z,12.20
2019-03-17T20:22:44.794Z,12.10
2019-03-17T20:25:13.395Z,12.00
2019-03-17T20:27:41.921Z,11.90
2019-03-17T20:30:15.076Z,11.80
2019-03-17T20:32:43.619Z,11.80
2019-03-17T20:35:13.318Z,11.70
2019-03-17T20:37:42.047Z,11.60
2019-03-17T20:40:14.778Z,11.60
2019-03-17T20:42:43.367Z,11.50
2019-03-17T20:45:13.337Z,11.40
2019-03-17T20:47:41.892Z,11.30
2019-03-17T20:50:12.565Z,11.20
2019-03-17T20:52:41.037Z,11.10
2019-03-17T20:55:13.110Z,11.10
2019-03-17T20:57:42.024Z,11.00
2019-03-17T21:00:17.750Z,11.00
2019-03-17T21:02:46.304Z,11.00
2019-03-17T21:05:15.207Z,11.00
2019-03-17T21:07:43.671Z,11.00
2019-03-17T21:10:16.155Z,11.10
2019-03-17T21:12:44.677Z,11.20
2019-03-17T21:15:19.647Z,11.30
2019-03-17T21:17:48.269Z,11.30
2019-03-17T21:20:18.544Z,11.30
2019-03-17T21:22:47.170Z,11.40
2019-03-17T21:25:15.634Z,11.50
2019-03-17T21:27:44.105Z,11.50
2019-03-17T21:30:18.693Z,11.50
2019-03-17T21:32:47.625Z,11.60
2019-03-17T21:35:16.064Z,11.60
2019-03-17T21:37:44.699Z,11.70
2019-03-17T21:40:13.406Z,11.70
2019-03-17T21:42:41.871Z,11.80
2019-03-17T21:45:12.519Z,11.80
2019-03-17T21:47:41.006Z,11.90
2019-03-17T21:50:20.630Z,11.90
2019-03-17T21:52:49.652Z,11.90
2019-03-17T21:55:18.250Z,12.00
2019-03-17T21:57:46.796Z,12.20
2019-03-17T22:00:22.054Z,12.10
2019-03-17T22:02:50.551Z,12.00
2019-03-17T22:05:19.089Z,11.80
2019-03-17T22:07:50.581Z,11.60
2019-03-17T22:10:19.088Z,11.30
2019-03-17T22:12:47.578Z,11.00
2019-03-17T22:15:17.131Z,10.70
2019-03-17T22:17:45.667Z,10.40
2019-03-17T22:20:15.378Z,10.10
2019-03-17T22:22:43.987Z,9.90
2019-03-17T22:25:14.931Z,9.80
2019-03-17T22:27:43.450Z,9.60
2019-03-17T22:30:16.262Z,9.50
2019-03-17T22:32:44.720Z,9.50
2019-03-17T22:35:13.255Z,9.40
2019-03-17T22:37:41.740Z,9.40
2019-03-17T22:40:18.357Z,9.30
2019-03-17T22:42:46.940Z,9.20
2019-03-17T22:45:17.084Z,9.20
2019-03-17T22:47:45.725Z,9.10
2019-03-17T22:50:18.307Z,9.10
2019-03-17T22:52:48.400Z,9.10
2019-03-17T22:55:17.141Z,9.10
2019-03-17T22:57:45.725Z,9.00
2019-03-17T23:00:25.970Z,9.00
2019-03-17T23:02:54.589Z,9.00
2019-03-17T23:05:23.040Z,9.00
2019-03-17T23:07:51.499Z,9.00
2019-03-17T23:10:20.094Z,9.00
2019-03-17T23:12:48.542Z,8.90
2019-03-17T23:15:17.159Z,9.00
2019-03-17T23:17:45.686Z,8.90
2019-03-17T23:20:16.310Z,8.90
2019-03-17T23:22:44.949Z,8.90
2019-03-17T23:25:13.950Z,8.90
2019-03-17T23:27:42.430Z,8.80
2019-03-17T23:30:19.295Z,8.80
2019-03-17T23:32:49.440Z,8.80
2019-03-17T23:35:18.267Z,8.80
2019-03-17T23:37:46.785Z,8.70
2019-03-17T23:40:17.447Z,8.70
2019-03-17T23:42:46.063Z,8.60
2019-03-17T23:45:15.147Z,8.60
2019-03-17T23:47:43.603Z,8.60
2019-03-17T23:50:13.834Z,8.60
2019-03-17T23:52:42.378Z,8.60
2019-03-17T23:55:12.676Z,8.50
2019-03-17T23:57:42.186Z,8.50
